Time;durP1;ratioP1;P1;durP2;ratioP2;P2;SDS_P1;SDS_P2;PMS_P1;PMS_P2;Temp;Humidity;BMP_temperature;BMP_pressure;BME280_temperature;BME280_humidity;BME280_pressure;Samples;Min_cycle;Max_cycle;Signal;HPM_P1;HPM_P2
2024/01/06 00:00:45;;;;;;;12.55;11.30;;;;;;;9.01;100.00;100229.56;5283050;28;20039;-83
2024/01/06 00:03:17;;;;;;;13.18;11.60;;;;;;;8.97;100.00;100234.22;5281687;28;20028;-83
2024/01/06 00:05:49;;;;;;;12.52;11.10;;;;;;;8.99;100.00;100234.94;5284283;28;20386;-83
2024/01/06 00:08:21;;;;;;;13.95;10.95;;;;;;;8.92;100.00;100233.81;5280840;28;20043;-83
2024/01/06 00:10:53;;;;;;;13.35;11.95;;;;;;;8.93;100.00;100247.69;5284766;28;20046;-83
2024/01/06 00:13:25;;;;;;;13.10;11.70;;;;;;;8.97;100.00;100251.69;5280813;28;20067;-83
2024/01/06 00:15:57;;;;;;;14.60;12.10;;;;;;;8.91;100.00;100244.41;5283687;28;20035;-83
2024/01/06 00:18:29;;;;;;;14.48;12.43;;;;;;;8.93;100.00;100255.53;5283655;28;20043;-83
2024/01/06 00:21:01;;;;;;;13.40;11.93;;;;;;;8.93;100.00;100258.97;5286542;28;20479;-83
2024/01/06 00:23:33;;;;;;;15.77;13.57;;;;;;;8.92;100.00;100269.56;5282937;28;20025;-83
2024/01/06 00:26:05;;;;;;;13.27;11.57;;;;;;;8.97;100.00;100270.81;5282979;28;20184;-83
2024/01/06 00:28:38;;;;;;;15.07;13.48;;;;;;;8.78;100.00;100273.38;5283341;28;20031;-82
2024/01/06 00:31:10;;;;;;;15.35;13.73;;;;;;;8.77;100.00;100279.56;5286104;28;20035;-83
2024/01/06 00:33:43;;;;;;;16.17;14.48;;;;;;;8.69;100.00;100277.59;5284323;28;20039;-83
2024/01/06 00:36:15;;;;;;;15.65;14.05;;;;;;;8.63;100.00;100280.72;5284717;28;20039;-83
2024/01/06 00:38:46;;;;;;;14.98;13.40;;;;;;;8.59;100.00;100273.28;5284743;28;20044;-83
2024/01/06 00:41:18;;;;;;;16.50;14.80;;;;;;;8.60;100.00;100281.03;5285165;28;20034;-83
2024/01/06 00:43:50;;;;;;;16.77;14.68;;;;;;;8.55;100.00;100285.78;5283976;28;20047;-83
2024/01/06 00:46:22;;;;;;;16.65;14.95;;;;;;;8.49;100.00;100281.94;5280757;28;20036;-83
2024/01/06 00:48:54;;;;;;;18.25;16.35;;;;;;;8.48;100.00;100282.88;5282160;28;20031;-83
2024/01/06 00:51:27;;;;;;;18.20;15.95;;;;;;;8.44;100.00;100284.09;5284573;28;20284;-83
2024/01/06 00:53:59;;;;;;;18.50;15.68;;;;;;;8.45;100.00;100279.72;5285241;28;20477;-83
2024/01/06 00:56:30;;;;;;;18.20;15.52;;;;;;;8.38;100.00;100287.22;5284968;28;20047;-83
2024/01/06 00:59:02;;;;;;;17.58;15.18;;;;;;;8.39;100.00;100288.88;5281991;28;20051;-83
2024/01/06 01:01:34;;;;;;;19.35;16.00;;;;;;;8.35;100.00;100282.22;5283480;28;20032;-83
2024/01/06 01:04:06;;;;;;;18.55;15.65;;;;;;;8.35;100.00;100289.25;5282841;28;20385;-83
2024/01/06 01:06:38;;;;;;;18.40;15.60;;;;;;;8.35;100.00;100295.28;5283863;28;20044;-83
2024/01/06 01:09:13;;;;;;;17.90;15.45;;;;;;;8.32;100.00;100303.38;5285959;28;20031;-83
2024/01/06 01:11:45;;;;;;;17.63;14.85;;;;;;;8.29;100.00;100299.22;5283948;28;20036;-83
2024/01/06 01:14:18;;;;;;;19.25;15.77;;;;;;;8.26;100.00;100298.69;5284987;28;20031;-83
2024/01/06 01:16:50;;;;;;;;;;;;;;;8.85;100.00;100302.41;5284252;28;20038;-83
2024/01/06 01:19:22;;;;;;;18.52;15.30;;;;;;;8.23;100.00;100309.38;5284030;28;20292;-83
2024/01/06 01:21:55;;;;;;;18.23;15.68;;;;;;;8.13;100.00;100313.69;5285598;28;20044;-83
2024/01/06 01:24:27;;;;;;;17.67;15.50;;;;;;;8.09;100.00;100305.28;5282071;28;20033;-83
2024/01/06 01:26:59;;;;;;;19.10;16.08;;;;;;;8.07;100.00;100311.56;5284031;28;20903;-83
2024/01/06 01:29:31;;;;;;;18.25;16.35;;;;;;;8.02;100.00;100318.00;5281998;28;20405;-83
2024/01/06 01:32:03;;;;;;;16.95;15.10;;;;;;;8.01;100.00;100315.53;5283939;28;20036;-83
2024/01/06 01:34:35;;;;;;;18.80;15.93;;;;;;;8.03;100.00;100329.25;5282139;28;20094;-83
2024/01/06 01:37:07;;;;;;;16.65;14.63;;;;;;;8.04;100.00;100330.94;5285066;28;20040;-83
2024/01/06 01:39:38;;;;;;;16.80;14.98;;;;;;;7.95;100.00;100326.47;5284891;28;20039;-83
2024/01/06 01:42:10;;;;;;;16.20;14.50;;;;;;;8.01;100.00;100331.19;5282386;28;20395;-83
2024/01/06 01:44:42;;;;;;;16.75;14.20;;;;;;;8.01;100.00;100337.22;5282433;28;20036;-83
2024/01/06 01:47:18;;;;;;;16.83;15.02;;;;;;;8.07;100.00;100337.66;5284952;28;20046;-83
2024/01/06 01:49:50;;;;;;;16.40;14.70;;;;;;;8.01;100.00;100339.00;5284231;28;20032;-83
2024/01/06 01:52:22;;;;;;;16.63;14.82;;;;;;;8.09;100.00;100343.59;5283984;28;20039;-83
2024/01/06 01:54:54;;;;;;;15.55;13.80;;;;;;;8.08;100.00;100348.00;5282690;28;20471;-83
2024/01/06 01:57:27;;;;;;;16.52;14.20;;;;;;;8.07;100.00;100348.94;5284675;28;20052;-82
2024/01/06 02:00:01;;;;;;;15.75;14.05;;;;;;;8.03;100.00;100355.34;5283603;28;20032;-83
2024/01/06 02:02:32;;;;;;;15.95;14.27;;;;;;;8.01;100.00;100357.28;5283529;28;20039;-82
2024/01/06 02:05:04;;;;;;;15.13;13.45;;;;;;;8.01;100.00;100358.09;5282427;28;20394;-82
2024/01/06 02:07:36;;;;;;;15.73;13.82;;;;;;;8.02;100.00;100353.69;5283374;28;20031;-83
2024/01/06 02:10:08;;;;;;;15.15;13.02;;;;;;;7.94;100.00;100356.94;5284066;28;20586;-83
2024/01/06 02:12:40;;;;;;;16.13;13.00;;;;;;;7.99;100.00;100359.16;5281528;28;20036;-83
2024/01/06 02:15:12;;;;;;;13.68;12.23;;;;;;;7.95;100.00;100360.38;5282348;28;20408;-83
2024/01/06 02:17:44;;;;;;;12.63;11.32;;;;;;;7.93;100.00;100368.31;5280586;28;20059;-83
2024/01/06 02:20:19;;;;;;;13.75;12.35;;;;;;;7.80;100.00;100363.28;5266160;28;20058;-83
2024/01/06 02:22:51;;;;;;;12.13;10.93;;;;;;;7.79;100.00;100374.66;5281909;28;20481;-83
2024/01/06 02:25:23;;;;;;;12.45;11.15;;;;;;;7.76;100.00;100382.72;5281810;28;20047;-83
2024/01/06 02:27:55;;;;;;;11.57;10.48;;;;;;;7.75;100.00;100383.69;5278727;28;20036;-83
2024/01/06 02:30:27;;;;;;;11.70;10.52;;;;;;;7.73;100.00;100390.00;5282091;28;20039;-83
2024/01/06 02:32:59;;;;;;;11.15;10.00;;;;;;;7.69;100.00;100394.63;5282052;28;20470;-83
2024/01/06 02:35:31;;;;;;;11.23;10.13;;;;;;;7.53;100.00;100392.38;5281222;28;20043;-83
2024/01/06 02:38:03;;;;;;;11.10;10.00;;;;;;;7.56;100.00;100399.97;5283170;28;20509;-83
2024/01/06 02:40:35;;;;;;;10.82;9.73;;;;;;;7.56;100.00;100399.13;5283167;28;20039;-83
2024/01/06 02:43:06;;;;;;;10.05;9.05;;;;;;;7.57;100.00;100406.00;5280273;28;20036;-83
2024/01/06 02:45:38;;;;;;;8.18;7.25;;;;;;;7.53;100.00;100405.41;5278912;28;20028;-83
2024/01/06 02:48:10;;;;;;;8.55;7.72;;;;;;;7.52;100.00;100415.97;5283405;28;20222;-83
2024/01/06 02:50:42;;;;;;;8.75;7.95;;;;;;;7.43;100.00;100406.28;5278589;28;20627;-83
2024/01/06 02:53:14;;;;;;;8.95;8.13;;;;;;;7.49;100.00;100424.84;5281917;28;20032;-83
2024/01/06 02:55:46;;;;;;;9.15;8.25;;;;;;;7.49;100.00;100427.44;5280616;28;20398;-82
2024/01/06 02:58:18;;;;;;;9.23;8.30;;;;;;;7.49;100.00;100431.84;5279820;28;20211;-83
2024/01/06 03:00:50;;;;;;;11.23;9.02;;;;;;;7.53;100.00;100441.91;5282621;28;20035;-83
2024/01/06 03:03:22;;;;;;;9.23;8.32;;;;;;;7.48;100.00;100446.66;5280911;28;20031;-83
2024/01/06 03:05:53;;;;;;;9.93;8.93;;;;;;;7.54;100.00;100448.78;5284711;28;20032;-83
2024/01/06 03:08:25;;;;;;;9.02;8.13;;;;;;;7.53;100.00;100449.72;5273234;28;20447;-83
2024/01/06 03:10:57;;;;;;;9.10;8.20;;;;;;;7.52;100.00;100463.72;5287698;28;20279;-83
2024/01/06 03:13:29;;;;;;;9.95;8.95;;;;;;;7.47;100.00;100462.44;5283206;28;20114;-83
2024/01/06 03:16:05;;;;;;;9.00;8.10;;;;;;;7.50;100.00;100459.56;5286490;28;20036;-83
2024/01/06 03:18:37;;;;;;;8.88;7.90;;;;;;;7.43;100.00;100466.22;5280923;28;20035;-83
2024/01/06 03:21:18;;;;;;;9.20;8.30;;;;;;;7.57;100.00;100471.16;5285776;28;20347;-83
2024/01/06 03:23:50;;;;;;;9.40;8.40;;;;;;;7.39;100.00;100481.28;5285551;28;20040;-83
2024/01/06 03:26:22;;;;;;;9.02;7.63;;;;;;;7.38;100.00;100479.59;5282780;28;20039;-83
2024/01/06 03:28:54;;;;;;;8.23;7.30;;;;;;;7.31;100.00;100478.41;5284722;28;20032;-83
2024/01/06 03:31:27;;;;;;;8.70;7.80;;;;;;;7.21;100.00;100478.28;5284098;28;20029;-83
2024/01/06 03:33:58;;;;;;;8.95;8.05;;;;;;;7.25;100.00;100486.69;5283523;28;20036;-83
2024/01/06 03:36:30;;;;;;;9.07;8.18;;;;;;;7.27;100.00;100487.41;5284391;28;20036;-83
2024/01/06 03:39:02;;;;;;;8.95;8.05;;;;;;;7.25;100.00;100482.31;5287399;28;20035;-83
2024/01/06 03:41:34;;;;;;;7.82;7.13;;;;;;;7.33;100.00;100497.38;5287187;28;20036;-83
2024/01/06 03:44:06;;;;;;;7.25;6.55;;;;;;;7.25;100.00;100499.72;5285768;28;20036;-83
2024/01/06 03:46:38;;;;;;;9.50;6.95;;;;;;;7.26;100.00;100502.22;5267832;28;20044;-83
2024/01/06 03:49:10;;;;;;;8.25;7.25;;;;;;;7.29;100.00;100501.16;5283702;28;20035;-83
2024/01/06 03:51:42;;;;;;;8.82;7.28;;;;;;;7.29;100.00;100503.75;5286738;28;20492;-83
2024/01/06 03:54:13;;;;;;;7.05;6.30;;;;;;;7.28;100.00;100505.53;5285294;28;20027;-83
2024/01/06 03:56:45;;;;;;;6.53;5.80;;;;;;;7.22;100.00;100508.59;5286825;28;20045;-83
2024/01/06 03:59:17;;;;;;;5.43;4.85;;;;;;;7.17;100.00;100509.91;5283991;28;20043;-83
2024/01/06 04:01:49;;;;;;;6.47;5.70;;;;;;;7.13;100.00;100511.91;5285995;28;20036;-83
2024/01/06 04:04:21;;;;;;;8.88;6.82;;;;;;;7.07;100.00;100497.56;5283849;28;20032;-83
2024/01/06 04:06:53;;;;;;;9.02;6.72;;;;;;;7.07;100.00;100502.78;5283738;28;20058;-83
2024/01/06 04:09:25;;;;;;;8.05;7.30;;;;;;;6.99;100.00;100499.09;5284117;28;20049;-83
2024/01/06 04:11:57;;;;;;;7.30;6.60;;;;;;;7.04;100.00;100499.56;5285176;28;20401;-83
2024/01/06 04:14:29;;;;;;;7.43;6.72;;;;;;;7.13;100.00;100514.53;5284880;28;20032;-83
2024/01/06 04:17:01;;;;;;;8.32;6.60;;;;;;;7.04;100.00;100510.00;5284239;28;20032;-83
2024/01/06 04:19:33;;;;;;;8.52;7.00;;;;;;;6.94;100.00;100511.66;5284754;28;20405;-83
2024/01/06 04:22:05;;;;;;;7.25;6.45;;;;;;;6.97;100.00;100532.22;5286144;28;20024;-83
2024/01/06 04:24:37;;;;;;;8.52;6.45;;;;;;;6.93;100.00;100526.44;5282262;28;20039;-83
2024/01/06 04:27:09;;;;;;;7.30;6.70;;;;;;;6.96;100.00;100533.19;5284717;28;20036;-83
2024/01/06 04:29:41;;;;;;;6.85;6.15;;;;;;;6.91;100.00;100528.31;5282673;28;20031;-83
2024/01/06 04:32:13;;;;;;;7.05;6.35;;;;;;;6.92;100.00;100537.78;5284222;28;20700;-83
2024/01/06 04:34:45;;;;;;;6.60;5.82;;;;;;;6.90;100.00;100542.28;5284737;28;20389;-83
2024/01/06 04:37:17;;;;;;;7.32;6.47;;;;;;;6.81;100.00;100543.78;5284333;28;20032;-83
2024/01/06 04:39:49;;;;;;;8.18;7.38;;;;;;;6.79;100.00;100537.06;5284435;28;20030;-83
2024/01/06 04:42:22;;;;;;;8.40;7.40;;;;;;;6.82;100.00;100540.25;5286634;28;20032;-83
2024/01/06 04:44:54;;;;;;;7.07;6.38;;;;;;;6.88;100.00;100549.38;5285488;28;20508;-83
2024/01/06 04:47:27;;;;;;;7.13;6.30;;;;;;;6.79;100.00;100544.84;5281508;28;20029;-83
2024/01/06 04:49:59;;;;;;;;;;;;;;;7.50;100.00;100561.22;5282291;28;20067;-83
2024/01/06 04:52:31;;;;;;;6.50;5.40;;;;;;;6.98;100.00;100570.38;5282717;28;19920;-83
2024/01/06 04:55:03;;;;;;;5.68;5.13;;;;;;;6.91;100.00;100570.00;5282038;28;20032;-83
2024/01/06 04:57:39;;;;;;;6.45;5.78;;;;;;;6.92;100.00;100570.81;5281130;28;20052;-83
2024/01/06 05:00:12;;;;;;;7.38;5.55;;;;;;;6.89;100.00;100584.06;5283880;28;20481;-83
2024/01/06 05:02:44;;;;;;;5.57;4.18;;;;;;;6.81;100.00;100571.59;5285654;28;20039;-83
2024/01/06 05:05:16;;;;;;;5.43;4.88;;;;;;;6.83;100.00;100574.94;5282935;28;20051;-83
2024/01/06 05:07:48;;;;;;;6.55;5.90;;;;;;;6.80;100.00;100578.59;5282792;28;20042;-83
2024/01/06 05:10:20;;;;;;;7.07;5.28;;;;;;;6.78;100.00;100588.28;5283887;28;20023;-83
2024/01/06 05:12:51;;;;;;;5.55;5.05;;;;;;;6.83;100.00;100590.56;5283772;28;20032;-83
2024/01/06 05:15:23;;;;;;;6.00;5.40;;;;;;;6.80;100.00;100594.19;5282880;28;20038;-83
2024/01/06 05:17:55;;;;;;;5.60;4.95;;;;;;;6.76;100.00;100597.16;5283797;28;20039;-83
2024/01/06 05:20:27;;;;;;;5.45;4.32;;;;;;;6.67;100.00;100590.03;5280694;28;20024;-83
2024/01/06 05:22:59;;;;;;;4.63;3.72;;;;;;;6.72;100.00;100601.75;5284515;28;20042;-83
2024/01/06 05:25:31;;;;;;;4.93;4.13;;;;;;;6.66;100.00;100598.75;5285517;28;20490;-83
2024/01/06 05:28:03;;;;;;;5.03;4.20;;;;;;;6.68;100.00;100602.09;5282763;28;20035;-82
2024/01/06 05:30:35;;;;;;;6.00;4.32;;;;;;;6.76;100.00;100612.78;5284011;28;21228;-83
2024/01/06 05:33:10;;;;;;;5.10;4.55;;;;;;;6.82;100.00;100617.53;5283842;28;20035;-83
2024/01/06 05:35:42;;;;;;;4.50;4.10;;;;;;;6.81;100.00;100614.09;5283984;28;20028;-83
2024/01/06 05:38:14;;;;;;;5.57;4.15;;;;;;;6.77;100.00;100606.63;5279574;28;20043;-83
2024/01/06 05:40:46;;;;;;;3.72;3.42;;;;;;;6.74;100.00;100623.31;5275086;28;20044;-83
2024/01/06 05:43:17;;;;;;;3.92;3.42;;;;;;;6.68;100.00;100617.69;5281010;28;20028;-83
2024/01/06 05:45:50;;;;;;;3.80;3.30;;;;;;;6.66;100.00;100623.00;5283313;28;20070;-82
2024/01/06 05:48:22;;;;;;;3.97;3.57;;;;;;;6.72;100.00;100626.94;5282356;28;20477;-83
2024/01/06 05:50:54;;;;;;;4.47;3.90;;;;;;;6.68;100.00;100633.31;5282951;28;20229;-83
2024/01/06 05:53:26;;;;;;;4.40;4.00;;;;;;;6.55;100.00;100626.41;5283495;28;20028;-83
2024/01/06 05:55:58;;;;;;;3.70;3.30;;;;;;;6.62;100.00;100639.78;5281917;28;20048;-82
2024/01/06 05:58:30;;;;;;;3.80;3.30;;;;;;;6.60;100.00;100635.66;5280456;28;20035;-82
2024/01/06 06:01:02;;;;;;;4.75;3.83;;;;;;;6.58;100.00;100649.59;5282891;28;20789;-83
2024/01/06 06:03:34;;;;;;;5.07;3.88;;;;;;;6.43;100.00;100647.25;5284846;28;20040;-82
2024/01/06 06:06:06;;;;;;;4.85;4.05;;;;;;;6.49;100.00;100652.03;5283165;28;20526;-83
2024/01/06 06:08:41;;;;;;;4.65;4.22;;;;;;;6.49;100.00;100647.66;5281092;28;20035;-83
2024/01/06 06:11:13;;;;;;;5.72;4.40;;;;;;;6.49;100.00;100665.88;5281432;28;20296;-83
2024/01/06 06:13:45;;;;;;;4.97;4.47;;;;;;;6.41;100.00;100652.56;5283174;28;20054;-83
2024/01/06 06:16:17;;;;;;;5.30;4.47;;;;;;;6.49;100.00;100665.88;5283676;28;20036;-83
2024/01/06 06:18:48;;;;;;;5.00;4.50;;;;;;;6.53;100.00;100671.69;5280474;28;20385;-83
2024/01/06 06:21:20;;;;;;;6.07;5.07;;;;;;;6.46;100.00;100676.47;5282580;28;20036;-82
2024/01/06 06:23:52;;;;;;;5.80;5.30;;;;;;;6.39;100.00;100677.03;5285162;28;20032;-83
2024/01/06 06:26:24;;;;;;;5.38;4.70;;;;;;;6.47;100.00;100687.72;5281123;28;20032;-83
2024/01/06 06:28:56;;;;;;;6.30;5.70;;;;;;;6.39;100.00;100687.44;5281182;28;20412;-82
2024/01/06 06:31:28;;;;;;;7.05;5.70;;;;;;;6.34;100.00;100690.34;5283122;28;20024;-82
2024/01/06 06:34:00;;;;;;;7.07;5.78;;;;;;;6.31;100.00;100693.16;5281000;28;20042;-83
2024/01/06 06:36:32;;;;;;;6.30;5.70;;;;;;;6.37;100.00;100697.13;5282481;28;20046;-83
2024/01/06 06:39:04;;;;;;;6.40;5.80;;;;;;;6.34;100.00;100704.19;5281750;28;20036;-83
2024/01/06 06:41:36;;;;;;;7.93;5.43;;;;;;;6.33;100.00;100699.94;5282280;28;20051;-83
2024/01/06 06:44:08;;;;;;;6.20;5.63;;;;;;;6.34;100.00;100705.97;5284210;28;20031;-83
2024/01/06 06:46:39;;;;;;;6.10;5.50;;;;;;;6.32;100.00;100708.66;5280617;28;20038;-83
2024/01/06 06:49:11;;;;;;;7.15;5.72;;;;;;;6.37;100.00;100704.94;5280679;28;20027;-83
2024/01/06 06:51:46;;;;;;;7.15;5.70;;;;;;;6.38;100.00;100723.03;5283779;28;20375;-83
2024/01/06 06:54:18;;;;;;;6.90;5.97;;;;;;;6.38;100.00;100707.41;5280559;28;20134;-83
2024/01/06 06:56:50;;;;;;;5.78;5.18;;;;;;;6.43;100.00;100725.31;5283097;28;20529;-81
2024/01/06 06:59:21;;;;;;;6.43;5.82;;;;;;;6.35;100.00;100723.25;5283942;28;20035;-82
2024/01/06 07:01:53;;;;;;;6.97;5.85;;;;;;;6.40;100.00;100735.91;5276940;28;20028;-81
2024/01/06 07:04:26;;;;;;;5.97;5.38;;;;;;;6.42;100.00;100747.91;5279808;28;20078;-82
2024/01/06 07:06:58;;;;;;;6.95;5.30;;;;;;;6.42;100.00;100750.50;5282795;28;20027;-82
2024/01/06 07:09:30;;;;;;;6.25;5.40;;;;;;;6.40;100.00;100754.97;5280437;28;20033;-82
2024/01/06 07:12:02;;;;;;;6.80;5.18;;;;;;;6.41;100.00;100756.66;5284903;28;20034;-81
2024/01/06 07:14:34;;;;;;;6.60;5.82;;;;;;;6.38;100.00;100764.66;5294183;28;20109;-82
2024/01/06 07:17:06;;;;;;;6.18;5.57;;;;;;;6.32;100.00;100767.66;5291922;28;20095;-82
2024/01/06 07:19:38;;;;;;;6.75;5.80;;;;;;;6.33;100.00;100769.38;5289926;28;20175;-82
2024/01/06 07:22:10;;;;;;;6.60;6.00;;;;;;;6.33;100.00;100769.38;5292199;28;20044;-82
2024/01/06 07:24:42;;;;;;;7.18;5.82;;;;;;;6.25;100.00;100758.63;5290042;28;20044;-82
2024/01/06 07:27:14;;;;;;;7.03;6.32;;;;;;;6.33;100.00;100770.19;5290992;28;20033;-83
2024/01/06 07:29:46;;;;;;;8.65;6.50;;;;;;;6.34;100.00;100777.06;5285707;28;20028;-82
2024/01/06 07:32:18;;;;;;;7.65;6.85;;;;;;;6.32;100.00;100785.88;5286396;28;20044;-82
2024/01/06 07:34:50;;;;;;;7.95;6.47;;;;;;;6.31;100.00;100781.63;5288313;28;20936;-82
2024/01/06 07:37:22;;;;;;;9.70;7.28;;;;;;;6.33;100.00;100785.81;5290341;28;20028;-82
2024/01/06 07:39:54;;;;;;;7.63;6.82;;;;;;;6.35;100.00;100785.69;5289905;28;20032;-82
2024/01/06 07:42:26;;;;;;;7.22;6.50;;;;;;;6.40;100.00;100787.97;5287749;28;20030;-82
2024/01/06 07:44:58;;;;;;;8.50;6.97;;;;;;;6.42;100.00;100791.31;5291616;28;20024;-82
2024/01/06 07:47:30;;;;;;;10.52;7.50;;;;;;;6.38;100.00;100793.28;5290270;28;20032;-82
2024/01/06 07:50:03;;;;;;;7.93;7.13;;;;;;;6.41;100.00;100806.09;5290799;28;20027;-82
2024/01/06 07:52:34;;;;;;;10.73;7.03;;;;;;;6.42;100.00;100806.94;5291470;28;20036;-82
2024/01/06 07:55:07;;;;;;;8.68;7.18;;;;;;;6.37;100.00;100809.00;5294717;28;20541;-82
2024/01/06 07:57:39;;;;;;;9.07;7.28;;;;;;;6.34;100.00;100797.88;5294198;28;20052;-82
2024/01/06 08:00:15;;;;;;;8.75;7.13;;;;;;;6.42;100.00;100812.13;5292585;28;20028;-82
2024/01/06 08:02:47;;;;;;;8.43;7.60;;;;;;;6.43;100.00;100812.00;5295381;28;20484;-82
2024/01/06 08:05:18;;;;;;;8.48;7.35;;;;;;;6.39;100.00;100815.75;5295437;28;20029;-82
2024/01/06 08:07:51;;;;;;;8.73;7.53;;;;;;;6.32;100.00;100812.72;5291612;28;20846;-82
2024/01/06 08:10:23;;;;;;;8.18;6.90;;;;;;;6.41;100.00;100826.91;5290886;28;20040;-82
2024/01/06 08:12:55;;;;;;;9.77;7.55;;;;;;;6.39;100.00;100841.78;5294816;28;20032;-82
2024/01/06 08:15:27;;;;;;;9.27;7.82;;;;;;;6.36;100.00;100838.56;5288126;28;20024;-82
2024/01/06 08:17:59;;;;;;;8.90;7.50;;;;;;;6.38;100.00;100847.94;5287540;28;20039;-82
2024/01/06 08:20:31;;;;;;;7.38;6.63;;;;;;;6.25;100.00;100847.06;5286579;28;20413;-82
2024/01/06 08:23:03;;;;;;;7.32;6.53;;;;;;;6.26;100.00;100860.00;5285441;28;20043;-82
2024/01/06 08:25:35;;;;;;;7.57;6.65;;;;;;;6.27;100.00;100855.63;5284268;28;20043;-82
2024/01/06 08:28:07;;;;;;;8.57;7.32;;;;;;;6.26;100.00;100864.38;5284950;28;20032;-82
2024/01/06 08:30:39;;;;;;;8.05;7.25;;;;;;;6.16;100.00;100858.09;5286087;28;20020;-82
2024/01/06 08:33:11;;;;;;;7.55;6.80;;;;;;;6.27;100.00;100866.03;5283027;28;20405;-82
2024/01/06 08:35:42;;;;;;;8.55;7.63;;;;;;;6.24;100.00;100871.44;5284679;28;20042;-82
2024/01/06 08:38:14;;;;;;;8.10;7.25;;;;;;;6.23;100.00;100877.56;5283073;28;20317;-82
2024/01/06 08:40:47;;;;;;;7.40;6.68;;;;;;;6.23;100.00;100885.38;5284207;28;20027;-82
2024/01/06 08:43:19;;;;;;;8.45;6.88;;;;;;;6.27;100.00;100881.63;5284382;28;20028;-82
2024/01/06 08:45:51;;;;;;;11.77;7.60;;;;;;;6.19;100.00;100886.53;5285494;28;20036;-81
2024/01/06 08:48:23;;;;;;;9.15;6.72;;;;;;;6.12;100.00;100890.44;5284772;28;20086;-82
2024/01/06 08:50:55;;;;;;;8.98;7.25;;;;;;;6.13;100.00;100897.31;5283648;28;20032;-82
2024/01/06 08:53:27;;;;;;;8.70;7.45;;;;;;;6.04;100.00;100903.97;5288232;28;20190;-82
2024/01/06 08:55:59;;;;;;;8.75;7.43;;;;;;;5.99;100.00;100899.06;5284477;28;20033;-83
2024/01/06 08:58:31;;;;;;;8.77;7.82;;;;;;;6.00;100.00;100908.53;5287379;28;20657;-83
2024/01/06 09:01:03;;;;;;;9.00;8.10;;;;;;;5.97;100.00;100915.69;5293047;28;20024;-83
2024/01/06 09:03:35;;;;;;;9.75;7.90;;;;;;;6.00;100.00;100915.50;5290601;28;20044;-84
2024/01/06 09:06:07;;;;;;;9.15;6.90;;;;;;;6.00;100.00;100915.50;5288592;28;20036;-83
2024/01/06 09:08:39;;;;;;;8.35;7.18;;;;;;;5.98;100.00;100927.75;5288217;28;20123;-83
2024/01/06 09:11:10;;;;;;;9.10;7.32;;;;;;;6.01;100.00;100928.38;5289947;28;20034;-84
2024/01/06 09:13:42;;;;;;;8.95;6.97;;;;;;;6.02;100.00;100924.88;5289154;28;20024;-83
2024/01/06 09:16:14;;;;;;;8.77;6.78;;;;;;;6.05;100.00;100934.22;5290925;28;20028;-83
2024/01/06 09:18:47;;;;;;;8.00;6.38;;;;;;;6.07;100.00;100932.38;5290103;28;20532;-83
2024/01/06 09:21:19;;;;;;;11.00;7.47;;;;;;;6.08;100.00;100939.22;5290323;28;20391;-82
2024/01/06 09:23:51;;;;;;;9.98;7.07;;;;;;;6.08;100.00;100947.88;5290599;28;20036;-83
2024/01/06 09:26:23;;;;;;;9.75;7.95;;;;;;;6.12;100.00;100935.50;5290124;28;20211;-83
2024/01/06 09:28:55;;;;;;;9.80;7.43;;;;;;;6.06;100.00;100954.94;5289130;28;20040;-83
2024/01/06 09:31:27;;;;;;;10.18;7.32;;;;;;;6.04;100.00;100937.75;5289406;28;20363;-84
2024/01/06 09:34:06;;;;;;;8.23;7.30;;;;;;;6.11;100.00;100953.81;5291370;28;20034;-83
2024/01/06 09:36:38;;;;;;;9.45;7.72;;;;;;;6.09;100.00;100959.94;5290477;28;20043;-83
2024/01/06 09:39:10;;;;;;;9.20;7.50;;;;;;;6.07;100.00;100959.22;5289416;28;20336;-83
2024/01/06 09:41:41;;;;;;;8.23;7.43;;;;;;;6.12;100.00;100971.91;5290657;28;20037;-83
2024/01/06 09:44:15;;;;;;;8.27;7.47;;;;;;;6.13;100.00;100968.38;5288729;28;20039;-82
2024/01/06 09:46:47;;;;;;;8.25;7.22;;;;;;;6.11;100.00;100969.41;5283364;28;20027;-83
2024/01/06 09:49:23;;;;;;;8.68;7.65;;;;;;;6.19;100.00;100978.41;5283352;28;20037;-83
2024/01/06 09:51:58;;;;;;;7.43;6.38;;;;;;;6.18;100.00;100981.94;5284272;28;20038;-83
2024/01/06 09:54:33;;;;;;;7.03;5.95;;;;;;;6.09;100.00;100993.75;5279847;28;20027;-83
2024/01/06 09:57:06;;;;;;;7.60;6.22;;;;;;;6.08;100.00;100996.44;5284439;28;20075;-83
2024/01/06 09:59:38;;;;;;;6.97;6.28;;;;;;;6.04;100.00;100992.38;5283398;28;20031;-83
2024/01/06 10:02:14;;;;;;;8.65;6.40;;;;;;;6.07;100.00;100992.19;5282559;28;20040;-83
2024/01/06 10:04:46;;;;;;;10.18;6.97;;;;;;;6.07;100.00;101005.19;5283918;28;20039;-82
2024/01/06 10:07:18;;;;;;;7.47;6.10;;;;;;;6.07;100.00;101008.63;5284135;28;20449;-83
2024/01/06 10:09:50;;;;;;;7.43;6.55;;;;;;;5.97;100.00;101010.13;5280342;28;20920;-83
2024/01/06 10:12:25;;;;;;;7.75;6.13;;;;;;;6.06;100.00;101012.16;5281105;28;20044;-82
2024/01/06 10:14:57;;;;;;;7.47;6.65;;;;;;;5.95;100.00;101013.78;5284821;28;20051;-83
2024/01/06 10:17:29;;;;;;;7.95;6.40;;;;;;;5.96;100.00;101018.88;5281366;28;20031;-82
2024/01/06 10:20:02;;;;;;;7.82;6.70;;;;;;;6.03;100.00;101024.53;5282695;28;20036;-83
2024/01/06 10:22:39;;;;;;;;;;;;;;;6.62;100.00;101029.44;5282787;28;20028;-83
2024/01/06 10:25:12;;;;;;;7.28;6.47;;;;;;;6.13;100.00;101029.97;5281824;28;19915;-82
2024/01/06 10:27:44;;;;;;;9.07;6.13;;;;;;;6.09;100.00;101034.53;5279737;28;20067;-82
2024/01/06 10:30:18;;;;;;;8.65;6.18;;;;;;;6.08;100.00;101030.25;5270900;28;21012;-82
2024/01/06 10:32:49;;;;;;;10.20;7.25;;;;;;;6.07;100.00;101032.03;5283572;28;20032;-79
2024/01/06 10:35:24;;;;;;;8.10;6.28;;;;;;;6.19;100.00;101035.63;5280193;28;20023;-82
2024/01/06 10:37:58;;;;;;;9.35;6.47;;;;;;;6.05;100.00;101028.69;5279485;28;20029;-82
2024/01/06 10:40:30;;;;;;;;;;;;;;;6.61;100.00;101039.00;5270353;28;20048;-82
2024/01/06 10:43:03;;;;;;;7.60;5.97;;;;;;;6.12;100.00;101036.13;5283739;28;19927;-82
2024/01/06 10:45:36;;;;;;;;;;;;;;;6.67;100.00;101038.63;5281564;28;20028;-82
2024/01/06 10:48:08;;;;;;;8.88;6.50;;;;;;;6.26;100.00;101046.50;5280818;28;19917;-82
2024/01/06 10:50:40;;;;;;;7.57;6.28;;;;;;;6.21;100.00;101038.13;5281686;28;20028;-82
2024/01/06 10:53:14;;;;;;;9.65;7.03;;;;;;;6.22;100.00;101040.66;5280982;28;20869;-81
2024/01/06 10:55:49;;;;;;;9.40;6.95;;;;;;;6.29;100.00;101041.09;5281641;28;20048;-82
2024/01/06 10:58:21;;;;;;;9.02;6.57;;;;;;;6.27;100.00;101042.94;5282207;28;20035;-81
2024/01/06 11:00:56;;;;;;;7.38;6.38;;;;;;;6.38;100.00;101044.88;5283349;28;20036;-81
2024/01/06 11:03:29;;;;;;;7.00;6.05;;;;;;;6.27;100.00;101048.16;5281593;28;20032;-82
2024/01/06 11:06:02;;;;;;;7.40;6.28;;;;;;;6.18;100.00;101035.75;5282900;28;20039;-82
2024/01/06 11:08:43;;;;;;;8.93;6.53;;;;;;;6.30;100.00;101045.34;5268398;28;20048;-81
2024/01/06 11:11:17;;;;;;;8.73;6.40;;;;;;;6.29;100.00;101051.50;5280460;28;20032;-82
2024/01/06 11:13:50;;;;;;;7.65;5.97;;;;;;;6.32;100.00;101059.09;5283111;28;20035;-82
2024/01/06 11:16:36;;;;;;;7.43;5.47;;;;;;;6.52;100.00;101057.84;5282015;28;20036;-82
2024/01/06 11:19:34;;;;;;;6.15;5.40;;;;;;;6.55;100.00;101061.06;5279995;28;20040;-82
2024/01/06 11:22:30;;;;;;;6.65;5.50;;;;;;;6.53;100.00;101062.09;5269917;28;20047;-81
2024/01/06 11:25:07;;;;;;;6.75;5.90;;;;;;;6.40;100.00;101054.22;5280343;28;20035;-80
2024/01/06 11:27:41;;;;;;;6.18;5.30;;;;;;;6.38;100.00;101057.88;5286763;28;20032;-81
2024/01/06 11:30:20;;;;;;;7.10;5.60;;;;;;;6.48;100.00;101057.19;5287707;28;20359;-81
2024/01/06 11:32:55;;;;;;;6.55;5.85;;;;;;;6.38;100.00;101065.69;5287632;28;20028;-81
2024/01/06 11:35:28;;;;;;;7.88;5.70;;;;;;;6.40;100.00;101069.00;5289072;28;20031;-81
2024/01/06 11:38:03;;;;;;;7.65;5.72;;;;;;;6.40;100.00;101059.44;5289139;28;20032;-81
2024/01/06 11:40:36;;;;;;;7.38;5.65;;;;;;;6.38;100.00;101071.72;5286575;28;20032;-81
2024/01/06 11:43:10;;;;;;;6.40;5.38;;;;;;;6.37;100.00;101064.03;5286807;28;20752;-81
2024/01/06 11:45:42;;;;;;;;;;;;;;;6.93;100.00;101069.91;5285341;28;20043;-82